sensor_id;sensor_type;location;lat;lon;timestamp;P1;durP1;ratioP1;P2;durP2;ratioP2
5414;SDS011;2730;51.512;7.504;2023-05-02T00:00:45;27.38;;;14.05;;
5414;SDS011;2730;51.512;7.504;2023-05-02T00:03:12;22.92;;;14.00;;
5414;SDS011;2730;51.512;7.504;2023-05-02T00:05:40;31.08;;;15.73;;
5414;SDS011;2730;51.512;7.504;2023-05-02T00:08:08;29.45;;;15.45;;
5414;SDS011;2730;51.512;7.504;2023-05-02T00:10:36;29.73;;;14.60;;
5414;SDS011;2730;51.512;7.504;2023-05-02T00:13:03;27.15;;;15.35;;
5414;SDS011;2730;51.512;7.504;2023-05-02T00:15:29;28.35;;;15.10;;
5414;SDS011;2730;51.512;7.504;2023-05-02T00:17:56;33.63;;;15.73;;
5414;SDS011;2730;51.512;7.504;2023-05-02T00:20:24;30.63;;;17.45;;
5414;SDS011;2730;51.512;7.504;2023-05-02T00:22:51;33.25;;;17.30;;
5414;SDS011;2730;51.512;7.504;2023-05-02T00:25:19;34.78;;;17.30;;
5414;SDS011;2730;51.512;7.504;2023-05-02T00:27:46;35.35;;;18.60;;
5414;SDS011;2730;51.512;7.504;2023-05-02T00:30:15;37.50;;;18.88;;
5414;SDS011;2730;51.512;7.504;2023-05-02T00:32:42;38.28;;;19.30;;
5414;SDS011;2730;51.512;7.504;2023-05-02T00:35:09;40.97;;;18.85;;
5414;SDS011;2730;51.512;7.504;2023-05-02T00:37:36;42.28;;;21.15;;
5414;SDS011;2730;51.512;7.504;2023-05-02T00:40:03;49.13;;;21.92;;
5414;SDS011;2730;51.512;7.504;2023-05-02T00:42:33;44.83;;;21.35;;
5414;SDS011;2730;51.512;7.504;2023-05-02T00:45:00;43.83;;;19.83;;
5414;SDS011;2730;51.512;7.504;2023-05-02T00:47:29;43.42;;;21.52;;
5414;SDS011;2730;51.512;7.504;2023-05-02T00:49:55;51.55;;;21.90;;
5414;SDS011;2730;51.512;7.504;2023-05-02T00:52:23;41.50;;;20.35;;
5414;SDS011;2730;51.512;7.504;2023-05-02T00:54:50;51.10;;;22.88;;
5414;SDS011;2730;51.512;7.504;2023-05-02T00:57:17;42.25;;;20.70;;
5414;SDS011;2730;51.512;7.504;2023-05-02T00:59:46;43.03;;;20.80;;
5414;SDS011;2730;51.512;7.504;2023-05-02T01:02:21;53.42;;;22.35;;
5414;SDS011;2730;51.512;7.504;2023-05-02T01:04:59;43.70;;;21.92;;
5414;SDS011;2730;51.512;7.504;2023-05-02T01:07:40;44.03;;;20.98;;
5414;SDS011;2730;51.512;7.504;2023-05-02T01:10:19;40.95;;;21.27;;
5414;SDS011;2730;51.512;7.504;2023-05-02T01:12:53;43.10;;;20.95;;
5414;SDS011;2730;51.512;7.504;2023-05-02T01:15:26;45.10;;;22.20;;
5414;SDS011;2730;51.512;7.504;2023-05-02T01:17:53;47.63;;;22.30;;
5414;SDS011;2730;51.512;7.504;2023-05-02T01:20:22;49.08;;;21.50;;
5414;SDS011;2730;51.512;7.504;2023-05-02T01:22:51;48.05;;;22.92;;
5414;SDS011;2730;51.512;7.504;2023-05-02T01:25:21;50.13;;;24.73;;
5414;SDS011;2730;51.512;7.504;2023-05-02T01:27:57;48.83;;;24.13;;
5414;SDS011;2730;51.512;7.504;2023-05-02T01:30:36;48.10;;;24.02;;
5414;SDS011;2730;51.512;7.504;2023-05-02T01:33:07;58.28;;;25.85;;
5414;SDS011;2730;51.512;7.504;2023-05-02T01:35:36;55.05;;;25.45;;
5414;SDS011;2730;51.512;7.504;2023-05-02T01:38:03;63.42;;;25.45;;
5414;SDS011;2730;51.512;7.504;2023-05-02T01:40:32;55.03;;;24.23;;
5414;SDS011;2730;51.512;7.504;2023-05-02T01:43:02;63.88;;;27.00;;
5414;SDS011;2730;51.512;7.504;2023-05-02T01:45:30;57.60;;;26.90;;
5414;SDS011;2730;51.512;7.504;2023-05-02T01:48:01;52.85;;;26.58;;
5414;SDS011;2730;51.512;7.504;2023-05-02T01:50:30;63.53;;;26.85;;
5414;SDS011;2730;51.512;7.504;2023-05-02T01:52:57;62.45;;;26.85;;
5414;SDS011;2730;51.512;7.504;2023-05-02T01:55:25;60.70;;;27.85;;
5414;SDS011;2730;51.512;7.504;2023-05-02T01:57:53;58.28;;;27.33;;
5414;SDS011;2730;51.512;7.504;2023-05-02T02:00:22;56.55;;;25.92;;
5414;SDS011;2730;51.512;7.504;2023-05-02T02:02:50;65.38;;;28.80;;
5414;SDS011;2730;51.512;7.504;2023-05-02T02:05:21;53.58;;;25.63;;
5414;SDS011;2730;51.512;7.504;2023-05-02T02:07:50;51.50;;;23.50;;
5414;SDS011;2730;51.512;7.504;2023-05-02T02:10:17;52.72;;;23.52;;
5414;SDS011;2730;51.512;7.504;2023-05-02T02:12:48;49.03;;;23.95;;
5414;SDS011;2730;51.512;7.504;2023-05-02T02:15:18;56.25;;;27.27;;
5414;SDS011;2730;51.512;7.504;2023-05-02T02:17:48;57.78;;;25.25;;
5414;SDS011;2730;51.512;7.504;2023-05-02T02:20:22;53.60;;;26.10;;
5414;SDS011;2730;51.512;7.504;2023-05-02T02:22:49;50.08;;;22.98;;
5414;SDS011;2730;51.512;7.504;2023-05-02T02:25:17;58.40;;;24.70;;
5414;SDS011;2730;51.512;7.504;2023-05-02T02:27:44;60.13;;;25.58;;
5414;SDS011;2730;51.512;7.504;2023-05-02T02:30:12;60.42;;;26.42;;
5414;SDS011;2730;51.512;7.504;2023-05-02T02:32:40;54.00;;;26.92;;
5414;SDS011;2730;51.512;7.504;2023-05-02T02:35:07;66.80;;;27.40;;
5414;SDS011;2730;51.512;7.504;2023-05-02T02:37:40;54.55;;;25.50;;
5414;SDS011;2730;51.512;7.504;2023-05-02T02:40:11;72.43;;;27.77;;
5414;SDS011;2730;51.512;7.504;2023-05-02T02:42:44;57.08;;;26.10;;
5414;SDS011;2730;51.512;7.504;2023-05-02T02:45:24;55.90;;;24.90;;
5414;SDS011;2730;51.512;7.504;2023-05-02T02:48:01;59.60;;;27.50;;
5414;SDS011;2730;51.512;7.504;2023-05-02T02:50:37;50.90;;;23.05;;
5414;SDS011;2730;51.512;7.504;2023-05-02T02:53:17;58.80;;;24.83;;
5414;SDS011;2730;51.512;7.504;2023-05-02T02:55:52;59.95;;;25.75;;
5414;SDS011;2730;51.512;7.504;2023-05-02T02:58:30;65.18;;;25.50;;
5414;SDS011;2730;51.512;7.504;2023-05-02T03:01:14;60.95;;;25.80;;
5414;SDS011;2730;51.512;7.504;2023-05-02T03:03:43;59.70;;;23.38;;
5414;SDS011;2730;51.512;7.504;2023-05-02T03:06:11;59.00;;;24.20;;
5414;SDS011;2730;51.512;7.504;2023-05-02T03:08:40;59.80;;;24.30;;
5414;SDS011;2730;51.512;7.504;2023-05-02T03:11:08;55.58;;;24.83;;
5414;SDS011;2730;51.512;7.504;2023-05-02T03:13:35;55.25;;;22.63;;
5414;SDS011;2730;51.512;7.504;2023-05-02T03:16:10;53.33;;;23.73;;
5414;SDS011;2730;51.512;7.504;2023-05-02T03:18:51;52.88;;;23.10;;
5414;SDS011;2730;51.512;7.504;2023-05-02T03:21:18;49.45;;;20.70;;
5414;SDS011;2730;51.512;7.504;2023-05-02T03:23:46;49.90;;;21.85;;
5414;SDS011;2730;51.512;7.504;2023-05-02T03:26:12;48.72;;;21.95;;
5414;SDS011;2730;51.512;7.504;2023-05-02T03:28:39;55.67;;;22.75;;
5414;SDS011;2730;51.512;7.504;2023-05-02T03:31:06;55.35;;;21.85;;
5414;SDS011;2730;51.512;7.504;2023-05-02T03:33:33;50.53;;;21.00;;
5414;SDS011;2730;51.512;7.504;2023-05-02T03:36:00;48.65;;;19.83;;
5414;SDS011;2730;51.512;7.504;2023-05-02T03:38:28;51.20;;;21.85;;
5414;SDS011;2730;51.512;7.504;2023-05-02T03:40:56;40.75;;;19.90;;
5414;SDS011;2730;51.512;7.504;2023-05-02T03:43:23;62.47;;;21.52;;
5414;SDS011;2730;51.512;7.504;2023-05-02T03:45:50;46.92;;;19.45;;
5414;SDS011;2730;51.512;7.504;2023-05-02T03:48:17;49.53;;;20.70;;
5414;SDS011;2730;51.512;7.504;2023-05-02T03:50:44;46.67;;;17.88;;
5414;SDS011;2730;51.512;7.504;2023-05-02T03:53:11;41.80;;;17.70;;
5414;SDS011;2730;51.512;7.504;2023-05-02T03:55:38;37.13;;;16.27;;
5414;SDS011;2730;51.512;7.504;2023-05-02T03:58:06;46.72;;;18.17;;
5414;SDS011;2730;51.512;7.504;2023-05-02T04:00:33;39.10;;;16.20;;
5414;SDS011;2730;51.512;7.504;2023-05-02T04:03:00;48.50;;;19.33;;
5414;SDS011;2730;51.512;7.504;2023-05-02T04:05:27;38.97;;;16.67;;
5414;SDS011;2730;51.512;7.504;2023-05-02T04:07:54;38.28;;;17.58;;
5414;SDS011;2730;51.512;7.504;2023-05-02T04:10:21;35.95;;;14.93;;
5414;SDS011;2730;51.512;7.504;2023-05-02T04:12:48;33.08;;;15.10;;
5414;SDS011;2730;51.512;7.504;2023-05-02T04:15:16;31.40;;;13.98;;
5414;SDS011;2730;51.512;7.504;2023-05-02T04:17:43;29.85;;;13.18;;
5414;SDS011;2730;51.512;7.504;2023-05-02T04:20:10;31.33;;;14.80;;
5414;SDS011;2730;51.512;7.504;2023-05-02T04:22:37;31.25;;;12.55;;
5414;SDS011;2730;51.512;7.504;2023-05-02T04:25:05;23.92;;;11.18;;
5414;SDS011;2730;51.512;7.504;2023-05-02T04:27:32;25.52;;;12.00;;
5414;SDS011;2730;51.512;7.504;2023-05-02T04:29:58;27.08;;;13.15;;
5414;SDS011;2730;51.512;7.504;2023-05-02T04:32:27;24.65;;;11.30;;
5414;SDS011;2730;51.512;7.504;2023-05-02T04:34:54;26.50;;;11.18;;
5414;SDS011;2730;51.512;7.504;2023-05-02T04:37:21;26.48;;;13.20;;
5414;SDS011;2730;51.512;7.504;2023-05-02T04:39:47;27.65;;;10.88;;
5414;SDS011;2730;51.512;7.504;2023-05-02T04:42:15;32.63;;;10.80;;
5414;SDS011;2730;51.512;7.504;2023-05-02T04:44:41;29.42;;;11.90;;
5414;SDS011;2730;51.512;7.504;2023-05-02T04:47:08;22.90;;;10.57;;
5414;SDS011;2730;51.512;7.504;2023-05-02T04:49:36;23.23;;;10.73;;
5414;SDS011;2730;51.512;7.504;2023-05-02T04:52:03;27.17;;;12.02;;
5414;SDS011;2730;51.512;7.504;2023-05-02T04:54:31;34.03;;;10.90;;
5414;SDS011;2730;51.512;7.504;2023-05-02T04:56:58;28.73;;;12.02;;
5414;SDS011;2730;51.512;7.504;2023-05-02T04:59:27;29.52;;;11.65;;
5414;SDS011;2730;51.512;7.504;2023-05-02T05:01:54;22.02;;;10.50;;
5414;SDS011;2730;51.512;7.504;2023-05-02T05:04:20;23.75;;;11.63;;
5414;SDS011;2730;51.512;7.504;2023-05-02T05:06:49;23.80;;;11.40;;
5414;SDS011;2730;51.512;7.504;2023-05-02T05:09:15;29.33;;;11.32;;
5414;SDS011;2730;51.512;7.504;2023-05-02T05:11:42;25.05;;;11.57;;
5414;SDS011;2730;51.512;7.504;2023-05-02T05:14:10;26.73;;;11.40;;
5414;SDS011;2730;51.512;7.504;2023-05-02T05:16:37;24.10;;;11.07;;
5414;SDS011;2730;51.512;7.504;2023-05-02T05:19:03;27.15;;;11.60;;
5414;SDS011;2730;51.512;7.504;2023-05-02T05:21:30;26.08;;;12.95;;
5414;SDS011;2730;51.512;7.504;2023-05-02T05:23:58;31.63;;;13.20;;
5414;SDS011;2730;51.512;7.504;2023-05-02T05:26:26;36.25;;;13.43;;
5414;SDS011;2730;51.512;7.504;2023-05-02T05:28:53;30.92;;;13.27;;
5414;SDS011;2730;51.512;7.504;2023-05-02T05:31:19;28.65;;;13.60;;
5414;SDS011;2730;51.512;7.504;2023-05-02T05:33:48;40.10;;;16.63;;
5414;SDS011;2730;51.512;7.504;2023-05-02T05:36:15;35.92;;;15.80;;
5414;SDS011;2730;51.512;7.504;2023-05-02T05:38:41;37.42;;;15.10;;
5414;SDS011;2730;51.512;7.504;2023-05-02T05:41:10;33.30;;;13.40;;
5414;SDS011;2730;51.512;7.504;2023-05-02T05:43:36;34.95;;;13.15;;
5414;SDS011;2730;51.512;7.504;2023-05-02T05:46:03;27.65;;;11.75;;
5414;SDS011;2730;51.512;7.504;2023-05-02T05:48:30;13.38;;;7.10;;
5414;SDS011;2730;51.512;7.504;2023-05-02T05:50:57;20.88;;;8.02;;
5414;SDS011;2730;51.512;7.504;2023-05-02T05:53:28;18.30;;;8.05;;
5414;SDS011;2730;51.512;7.504;2023-05-02T05:55:54;14.63;;;6.53;;
5414;SDS011;2730;51.512;7.504;2023-05-02T05:58:23;14.85;;;6.70;;
5414;SDS011;2730;51.512;7.504;2023-05-02T06:00:49;10.88;;;6.10;;
5414;SDS011;2730;51.512;7.504;2023-05-02T06:03:16;14.85;;;5.78;;
5414;SDS011;2730;51.512;7.504;2023-05-02T06:05:43;14.30;;;4.95;;
5414;SDS011;2730;51.512;7.504;2023-05-02T06:08:10;7.35;;;4.47;;
5414;SDS011;2730;51.512;7.504;2023-05-02T06:10:37;7.97;;;5.00;;
5414;SDS011;2730;51.512;7.504;2023-05-02T06:13:03;8.70;;;4.40;;
5414;SDS011;2730;51.512;7.504;2023-05-02T06:15:33;8.23;;;5.15;;
5414;SDS011;2730;51.512;7.504;2023-05-02T06:18:00;6.10;;;4.43;;
5414;SDS011;2730;51.512;7.504;2023-05-02T06:20:26;7.82;;;5.35;;
5414;SDS011;2730;51.512;7.504;2023-05-02T06:22:53;11.27;;;5.50;;
5414;SDS011;2730;51.512;7.504;2023-05-02T06:25:20;10.35;;;4.57;;
5414;SDS011;2730;51.512;7.504;2023-05-02T06:27:47;9.15;;;4.68;;
5414;SDS011;2730;51.512;7.504;2023-05-02T06:30:14;6.47;;;3.50;;
5414;SDS011;2730;51.512;7.504;2023-05-02T06:32:42;8.35;;;4.63;;
5414;SDS011;2730;51.512;7.504;2023-05-02T06:35:09;6.30;;;4.32;;
5414;SDS011;2730;51.512;7.504;2023-05-02T06:37:36;6.57;;;3.33;;
5414;SDS011;2730;51.512;7.504;2023-05-02T06:40:03;5.63;;;3.33;;
5414;SDS011;2730;51.512;7.504;2023-05-02T06:42:30;4.55;;;3.20;;
5414;SDS011;2730;51.512;7.504;2023-05-02T06:44:57;6.55;;;3.58;;
5414;SDS011;2730;51.512;7.504;2023-05-02T06:47:24;5.10;;;3.08;;
5414;SDS011;2730;51.512;7.504;2023-05-02T06:49:52;9.65;;;2.65;;
5414;SDS011;2730;51.512;7.504;2023-05-02T06:52:19;4.32;;;3.38;;
5414;SDS011;2730;51.512;7.504;2023-05-02T06:54:45;8.13;;;3.25;;
5414;SDS011;2730;51.512;7.504;2023-05-02T06:57:12;5.20;;;3.33;;
5414;SDS011;2730;51.512;7.504;2023-05-02T06:59:39;7.05;;;3.90;;
5414;SDS011;2730;51.512;7.504;2023-05-02T07:02:07;5.90;;;3.47;;
5414;SDS011;2730;51.512;7.504;2023-05-02T07:04:33;7.63;;;3.60;;
5414;SDS011;2730;51.512;7.504;2023-05-02T07:07:01;11.80;;;3.80;;
5414;SDS011;2730;51.512;7.504;2023-05-02T07:09:28;9.13;;;3.53;;
5414;SDS011;2730;51.512;7.504;2023-05-02T07:11:55;6.70;;;3.35;;
5414;SDS011;2730;51.512;7.504;2023-05-02T07:14:22;4.25;;;3.28;;
5414;SDS011;2730;51.512;7.504;2023-05-02T07:16:49;4.32;;;2.95;;
5414;SDS011;2730;51.512;7.504;2023-05-02T07:19:15;13.23;;;3.85;;
5414;SDS011;2730;51.512;7.504;2023-05-02T07:21:42;12.95;;;3.55;;
5414;SDS011;2730;51.512;7.504;2023-05-02T07:24:10;6.13;;;2.85;;
5414;SDS011;2730;51.512;7.504;2023-05-02T07:26:37;3.90;;;3.58;;
5414;SDS011;2730;51.512;7.504;2023-05-02T07:29:04;7.57;;;3.03;;
5414;SDS011;2730;51.512;7.504;2023-05-02T07:31:32;5.47;;;3.08;;
5414;SDS011;2730;51.512;7.504;2023-05-02T07:33:59;7.03;;;4.35;;
5414;SDS011;2730;51.512;7.504;2023-05-02T07:36:26;9.13;;;4.07;;
5414;SDS011;2730;51.512;7.504;2023-05-02T07:38:53;11.55;;;3.80;;
5414;SDS011;2730;51.512;7.504;2023-05-02T07:41:21;5.47;;;2.90;;
5414;SDS011;2730;51.512;7.504;2023-05-02T07:43:47;3.70;;;2.60;;
5414;SDS011;2730;51.512;7.504;2023-05-02T07:46:14;3.97;;;3.10;;
5414;SDS011;2730;51.512;7.504;2023-05-02T07:48:41;10.40;;;3.45;;
5414;SDS011;2730;51.512;7.504;2023-05-02T07:51:08;7.70;;;3.20;;
5414;SDS011;2730;51.512;7.504;2023-05-02T07:53:36;6.28;;;2.80;;
5414;SDS011;2730;51.512;7.504;2023-05-02T07:56:03;3.75;;;2.30;;
5414;SDS011;2730;51.512;7.504;2023-05-02T07:58:32;3.75;;;2.35;;
5414;SDS011;2730;51.512;7.504;2023-05-02T08:00:59;2.85;;;2.30;;
5414;SDS011;2730;51.512;7.504;2023-05-02T08:03:26;3.45;;;2.60;;
5414;SDS011;2730;51.512;7.504;2023-05-02T08:05:53;3.13;;;2.40;;
5414;SDS011;2730;51.512;7.504;2023-05-02T08:08:20;3.80;;;2.58;;
5414;SDS011;2730;51.512;7.504;2023-05-02T08:10:47;6.85;;;3.53;;
5414;SDS011;2730;51.512;7.504;2023-05-02T08:13:15;4.30;;;3.03;;
5414;SDS011;2730;51.512;7.504;2023-05-02T08:15:43;10.48;;;4.22;;
5414;SDS011;2730;51.512;7.504;2023-05-02T08:18:10;6.63;;;3.90;;
5414;SDS011;2730;51.512;7.504;2023-05-02T08:20:37;12.13;;;5.00;;
5414;SDS011;2730;51.512;7.504;2023-05-02T08:23:03;9.85;;;5.97;;
5414;SDS011;2730;51.512;7.504;2023-05-02T08:25:30;9.23;;;5.00;;
5414;SDS011;2730;51.512;7.504;2023-05-02T08:27:57;13.35;;;6.30;;
5414;SDS011;2730;51.512;7.504;2023-05-02T08:30:24;12.52;;;7.57;;
5414;SDS011;2730;51.512;7.504;2023-05-02T08:32:52;10.70;;;6.28;;
5414;SDS011;2730;51.512;7.504;2023-05-02T08:35:18;13.98;;;7.30;;
5414;SDS011;2730;51.512;7.504;2023-05-02T08:37:45;18.05;;;6.82;;
5414;SDS011;2730;51.512;7.504;2023-05-02T08:40:12;11.35;;;5.38;;
5414;SDS011;2730;51.512;7.504;2023-05-02T08:42:40;9.25;;;4.57;;
5414;SDS011;2730;51.512;7.504;2023-05-02T08:45:08;11.70;;;4.82;;
5414;SDS011;2730;51.512;7.504;2023-05-02T08:47:37;14.43;;;4.75;;
5414;SDS011;2730;51.512;7.504;2023-05-02T08:50:07;14.48;;;4.18;;
5414;SDS011;2730;51.512;7.504;2023-05-02T08:52:35;10.20;;;4.43;;
5414;SDS011;2730;51.512;7.504;2023-05-02T08:55:02;12.65;;;5.30;;
5414;SDS011;2730;51.512;7.504;2023-05-02T08:57:31;9.98;;;4.05;;
5414;SDS011;2730;51.512;7.504;2023-05-02T08:59:58;9.20;;;4.65;;
5414;SDS011;2730;51.512;7.504;2023-05-02T09:02:28;7.88;;;3.65;;
5414;SDS011;2730;51.512;7.504;2023-05-02T09:05:07;6.85;;;4.10;;
5414;SDS011;2730;51.512;7.504;2023-05-02T09:07:43;10.10;;;4.82;;
5414;SDS011;2730;51.512;7.504;2023-05-02T09:10:11;6.68;;;3.70;;
5414;SDS011;2730;51.512;7.504;2023-05-02T09:12:38;7.45;;;4.05;;
5414;SDS011;2730;51.512;7.504;2023-05-02T09:15:09;8.90;;;5.05;;
5414;SDS011;2730;51.512;7.504;2023-05-02T09:17:40;11.80;;;4.60;;
5414;SDS011;2730;51.512;7.504;2023-05-02T09:20:10;9.43;;;4.60;;
5414;SDS011;2730;51.512;7.504;2023-05-02T09:22:37;9.32;;;4.35;;
5414;SDS011;2730;51.512;7.504;2023-05-02T09:25:05;6.63;;;4.28;;
5414;SDS011;2730;51.512;7.504;2023-05-02T09:27:48;12.18;;;4.90;;
5414;SDS011;2730;51.512;7.504;2023-05-02T09:30:18;11.82;;;4.50;;
5414;SDS011;2730;51.512;7.504;2023-05-02T09:32:47;8.32;;;3.90;;
5414;SDS011;2730;51.512;7.504;2023-05-02T09:35:17;10.55;;;4.50;;
5414;SDS011;2730;51.512;7.504;2023-05-02T09:37:49;10.20;;;4.13;;
5414;SDS011;2730;51.512;7.504;2023-05-02T09:40:17;9.00;;;4.18;;
5414;SDS011;2730;51.512;7.504;2023-05-02T09:42:45;7.95;;;4.13;;
5414;SDS011;2730;51.512;7.504;2023-05-02T09:45:19;12.88;;;4.97;;
5414;SDS011;2730;51.512;7.504;2023-05-02T09:47:47;8.50;;;4.45;;
5414;SDS011;2730;51.512;7.504;2023-05-02T09:53:01;15.38;;;4.68;;
5414;SDS011;2730;51.512;7.504;2023-05-02T09:55:29;9.63;;;4.00;;
5414;SDS011;2730;51.512;7.504;2023-05-02T09:57:56;6.55;;;3.53;;
5414;SDS011;2730;51.512;7.504;2023-05-02T10:00:36;6.15;;;4.25;;
5414;SDS011;2730;51.512;7.504;2023-05-02T10:03:05;6.50;;;3.90;;
5414;SDS011;2730;51.512;7.504;2023-05-02T10:05:34;10.77;;;4.70;;
5414;SDS011;2730;51.512;7.504;2023-05-02T10:08:02;4.75;;;3.20;;
5414;SDS011;2730;51.512;7.504;2023-05-02T10:10:30;7.13;;;2.95;;
5414;SDS011;2730;51.512;7.504;2023-05-02T10:13:01;4.70;;;4.07;;
5414;SDS011;2730;51.512;7.504;2023-05-02T10:15:29;5.53;;;3.45;;
5414;SDS011;2730;51.512;7.504;2023-05-02T10:17:58;7.55;;;3.05;;
5414;SDS011;2730;51.512;7.504;2023-05-02T10:20:28;9.20;;;4.38;;
5414;SDS011;2730;51.512;7.504;2023-05-02T10:22:59;3.50;;;3.20;;
5414;SDS011;2730;51.512;7.504;2023-05-02T10:25:27;15.60;;;3.42;;
5414;SDS011;2730;51.512;7.504;2023-05-02T10:27:55;5.15;;;3.30;;
5414;SDS011;2730;51.512;7.504;2023-05-02T10:30:23;5.22;;;3.55;;
5414;SDS011;2730;51.512;7.504;2023-05-02T10:32:50;6.32;;;3.72;;
5414;SDS011;2730;51.512;7.504;2023-05-02T10:35:18;12.50;;;3.33;;
5414;SDS011;2730;51.512;7.504;2023-05-02T10:37:46;8.60;;;3.90;;
5414;SDS011;2730;51.512;7.504;2023-05-02T10:40:17;10.48;;;3.63;;
5414;SDS011;2730;51.512;7.504;2023-05-02T10:42:45;19.48;;;3.50;;
5414;SDS011;2730;51.512;7.504;2023-05-02T10:45:28;6.93;;;3.45;;
5414;SDS011;2730;51.512;7.504;2023-05-02T10:48:13;12.32;;;3.97;;
5414;SDS011;2730;51.512;7.504;2023-05-02T10:50:44;12.75;;;6.35;;
5414;SDS011;2730;51.512;7.504;2023-05-02T10:53:28;19.25;;;5.80;;
5414;SDS011;2730;51.512;7.504;2023-05-02T10:56:17;12.10;;;5.47;;
5414;SDS011;2730;51.512;7.504;2023-05-02T10:58:46;11.20;;;5.07;;
5414;SDS011;2730;51.512;7.504;2023-05-02T11:04:02;13.98;;;4.60;;
5414;SDS011;2730;51.512;7.504;2023-05-02T11:06:30;10.88;;;4.80;;
5414;SDS011;2730;51.512;7.504;2023-05-02T11:11:59;8.13;;;3.15;;
5414;SDS011;2730;51.512;7.504;2023-05-02T11:14:44;9.88;;;3.90;;
5414;SDS011;2730;51.512;7.504;2023-05-02T11:17:12;7.82;;;3.00;;
5414;SDS011;2730;51.512;7.504;2023-05-02T11:22:51;4.50;;;3.05;;
5414;SDS011;2730;51.512;7.504;2023-05-02T11:25:29;14.35;;;3.83;;
5414;SDS011;2730;51.512;7.504;2023-05-02T11:27:58;9.13;;;3.90;;
5414;SDS011;2730;51.512;7.504;2023-05-02T11:30:38;10.68;;;4.18;;
5414;SDS011;2730;51.512;7.504;2023-05-02T11:33:11;7.85;;;3.83;;
5414;SDS011;2730;51.512;7.504;2023-05-02T11:35:42;10.45;;;3.30;;
5414;SDS011;2730;51.512;7.504;2023-05-02T11:38:11;7.55;;;3.20;;
5414;SDS011;2730;51.512;7.504;2023-05-02T11:40:39;7.45;;;2.75;;
5414;SDS011;2730;51.512;7.504;2023-05-02T11:43:12;9.05;;;2.67;;
5414;SDS011;2730;51.512;7.504;2023-05-02T11:45:40;13.82;;;2.80;;
5414;SDS011;2730;51.512;7.504;2023-05-02T11:48:07;5.60;;;3.00;;
5414;SDS011;2730;51.512;7.504;2023-05-02T11:50:40;7.55;;;2.72;;
5414;SDS011;2730;51.512;7.504;2023-05-02T11:53:10;10.95;;;3.67;;
5414;SDS011;2730;51.512;7.504;2023-05-02T11:55:43;5.63;;;2.50;;
5414;SDS011;2730;51.512;7.504;2023-05-02T11:58:16;3.35;;;3.05;;
5414;SDS011;2730;51.512;7.504;2023-05-02T12:00:44;7.00;;;3.20;;
5414;SDS011;2730;51.512;7.504;2023-05-02T12:03:18;5.30;;;3.22;;
5414;SDS011;2730;51.512;7.504;2023-05-02T12:05:49;3.63;;;2.60;;
5414;SDS011;2730;51.512;7.504;2023-05-02T12:08:17;6.05;;;3.22;;
5414;SDS011;2730;51.512;7.504;2023-05-02T12:10:48;6.03;;;2.90;;
5414;SDS011;2730;51.512;7.504;2023-05-02T12:13:19;4.43;;;2.85;;
5414;SDS011;2730;51.512;7.504;2023-05-02T12:15:46;5.05;;;3.50;;
5414;SDS011;2730;51.512;7.504;2023-05-02T12:18:14;4.75;;;3.10;;
5414;SDS011;2730;51.512;7.504;2023-05-02T12:20:42;3.53;;;2.80;;
5414;SDS011;2730;51.512;7.504;2023-05-02T12:23:09;3.45;;;2.50;;
5414;SDS011;2730;51.512;7.504;2023-05-02T12:25:37;3.15;;;2.13;;
5414;SDS011;2730;51.512;7.504;2023-05-02T12:28:05;3.13;;;2.80;;
5414;SDS011;2730;51.512;7.504;2023-05-02T12:30:34;3.05;;;2.38;;
5414;SDS011;2730;51.512;7.504;2023-05-02T12:33:04;3.28;;;1.95;;
5414;SDS011;2730;51.512;7.504;2023-05-02T12:35:31;4.65;;;2.70;;
5414;SDS011;2730;51.512;7.504;2023-05-02T12:38:09;7.95;;;2.65;;
5414;SDS011;2730;51.512;7.504;2023-05-02T12:40:37;5.70;;;2.20;;
5414;SDS011;2730;51.512;7.504;2023-05-02T12:43:11;13.50;;;2.80;;
5414;SDS011;2730;51.512;7.504;2023-05-02T12:45:40;13.43;;;3.08;;
5414;SDS011;2730;51.512;7.504;2023-05-02T12:48:17;3.75;;;2.70;;
5414;SDS011;2730;51.512;7.504;2023-05-02T12:50:48;3.30;;;2.88;;
5414;SDS011;2730;51.512;7.504;2023-05-02T12:53:15;4.97;;;2.67;;
5414;SDS011;2730;51.512;7.504;2023-05-02T12:55:42;3.80;;;2.85;;
5414;SDS011;2730;51.512;7.504;2023-05-02T12:58:11;7.53;;;2.75;;
5414;SDS011;2730;51.512;7.504;2023-05-02T13:00:40;4.80;;;2.83;;
5414;SDS011;2730;51.512;7.504;2023-05-02T13:03:08;6.03;;;2.35;;
5414;SDS011;2730;51.512;7.504;2023-05-02T13:05:35;3.25;;;2.65;;
5414;SDS011;2730;51.512;7.504;2023-05-02T13:08:02;6.45;;;2.28;;
5414;SDS011;2730;51.512;7.504;2023-05-02T13:10:30;5.88;;;2.88;;
5414;SDS011;2730;51.512;7.504;2023-05-02T13:12:57;4.88;;;2.65;;
5414;SDS011;2730;51.512;7.504;2023-05-02T13:15:23;5.88;;;2.17;;
5414;SDS011;2730;51.512;7.504;2023-05-02T13:17:52;2.78;;;2.40;;
5414;SDS011;2730;51.512;7.504;2023-05-02T13:20:18;4.93;;;3.05;;
5414;SDS011;2730;51.512;7.504;2023-05-02T13:22:45;2.53;;;2.30;;
5414;SDS011;2730;51.512;7.504;2023-05-02T13:25:12;4.95;;;2.60;;
5414;SDS011;2730;51.512;7.504;2023-05-02T13:27:39;3.15;;;2.80;;
5414;SDS011;2730;51.512;7.504;2023-05-02T13:30:06;5.72;;;2.50;;
5414;SDS011;2730;51.512;7.504;2023-05-02T13:32:35;3.33;;;2.20;;
5414;SDS011;2730;51.512;7.504;2023-05-02T13:35:04;4.10;;;2.55;;
5414;SDS011;2730;51.512;7.504;2023-05-02T13:37:31;3.15;;;2.50;;
5414;SDS011;2730;51.512;7.504;2023-05-02T13:39:58;10.05;;;3.10;;
5414;SDS011;2730;51.512;7.504;2023-05-02T13:42:25;6.10;;;3.42;;
5414;SDS011;2730;51.512;7.504;2023-05-02T13:44:52;6.43;;;2.70;;
5414;SDS011;2730;51.512;7.504;2023-05-02T13:47:18;3.72;;;2.50;;
5414;SDS011;2730;51.512;7.504;2023-05-02T13:49:45;2.95;;;2.75;;
5414;SDS011;2730;51.512;7.504;2023-05-02T13:52:13;8.65;;;3.40;;
5414;SDS011;2730;51.512;7.504;2023-05-02T13:54:40;5.43;;;2.83;;
5414;SDS011;2730;51.512;7.504;2023-05-02T13:57:07;5.15;;;2.65;;
5414;SDS011;2730;51.512;7.504;2023-05-02T13:59:34;8.85;;;3.40;;
5414;SDS011;2730;51.512;7.504;2023-05-02T14:02:00;6.03;;;3.35;;
5414;SDS011;2730;51.512;7.504;2023-05-02T14:04:27;3.33;;;2.72;;
5414;SDS011;2730;51.512;7.504;2023-05-02T14:06:54;7.57;;;2.70;;
5414;SDS011;2730;51.512;7.504;2023-05-02T14:09:22;6.15;;;3.08;;
5414;SDS011;2730;51.512;7.504;2023-05-02T14:11:49;5.53;;;3.30;;
5414;SDS011;2730;51.512;7.504;2023-05-02T14:14:16;8.18;;;3.35;;
5414;SDS011;2730;51.512;7.504;2023-05-02T14:16:42;9.00;;;3.75;;
5414;SDS011;2730;51.512;7.504;2023-05-02T14:19:09;8.73;;;4.18;;
5414;SDS011;2730;51.512;7.504;2023-05-02T14:21:36;5.85;;;4.10;;
5414;SDS011;2730;51.512;7.504;2023-05-02T14:24:03;5.22;;;4.50;;
5414;SDS011;2730;51.512;7.504;2023-05-02T14:26:32;8.65;;;5.15;;
5414;SDS011;2730;51.512;7.504;2023-05-02T14:28:59;10.65;;;4.55;;
5414;SDS011;2730;51.512;7.504;2023-05-02T14:31:26;6.85;;;3.80;;
5414;SDS011;2730;51.512;7.504;2023-05-02T14:33:53;13.50;;;5.65;;
5414;SDS011;2730;51.512;7.504;2023-05-02T14:36:19;9.27;;;5.03;;
5414;SDS011;2730;51.512;7.504;2023-05-02T14:38:46;9.60;;;3.90;;
5414;SDS011;2730;51.512;7.504;2023-05-02T14:41:13;16.75;;;5.18;;
5414;SDS011;2730;51.512;7.504;2023-05-02T14:43:41;8.27;;;4.00;;
5414;SDS011;2730;51.512;7.504;2023-05-02T14:46:08;9.65;;;4.70;;
5414;SDS011;2730;51.512;7.504;2023-05-02T14:48:35;10.55;;;4.32;;
5414;SDS011;2730;51.512;7.504;2023-05-02T14:51:02;5.97;;;3.90;;
5414;SDS011;2730;51.512;7.504;2023-05-02T14:53:29;14.25;;;4.43;;
5414;SDS011;2730;51.512;7.504;2023-05-02T14:55:56;8.65;;;4.90;;
5414;SDS011;2730;51.512;7.504;2023-05-02T14:58:22;7.10;;;4.63;;
5414;SDS011;2730;51.512;7.504;2023-05-02T15:00:50;8.85;;;5.47;;
5414;SDS011;2730;51.512;7.504;2023-05-02T15:03:17;10.32;;;4.70;;
5414;SDS011;2730;51.512;7.504;2023-05-02T15:05:44;11.55;;;5.05;;
5414;SDS011;2730;51.512;7.504;2023-05-02T15:08:11;6.43;;;4.60;;
5414;SDS011;2730;51.512;7.504;2023-05-02T15:10:38;8.02;;;5.47;;
5414;SDS011;2730;51.512;7.504;2023-05-02T15:13:05;13.93;;;5.25;;
5414;SDS011;2730;51.512;7.504;2023-05-02T15:15:32;15.05;;;5.60;;
5414;SDS011;2730;51.512;7.504;2023-05-02T15:18:01;22.65;;;6.40;;
5414;SDS011;2730;51.512;7.504;2023-05-02T15:20:27;20.27;;;5.97;;
5414;SDS011;2730;51.512;7.504;2023-05-02T15:22:54;10.82;;;4.85;;